<?xml version="1.0" encoding="UTF-8" standalone="no" ?>
<gpx xmlns="http://www.topografix.com/GPX/1/1" xmlns:xsi="http://www.w3.org/2001/XMLSchema-instance" xsi:schemaLocation="http://www.topografix.com/GPX/1/1 http://www.topografix.com/GPX/1/1/gpx.xsd" version="1.1" creator="VisuGPX - https://www.visugpx.com">
  <metadata>
    <name>Prospection chemins praticables 1</name>
  </metadata>
  <trk>
    <name><![CDATA[Tracé actuel: 27 AOU 2021 15:31]]></name>
    <extensions>
      <line xmlns="http://www.topografix.com/GPX/gpx_style/0/2">
        <color>0000FF</color>
        <width>4</width>
      </line>
    </extensions>
    <trkseg>
      <trkpt lat="47.71225" lon="5.09152">
        <ele>498.5</ele>
        <time>2021-08-27T13:31:35Z</time>
      </trkpt>
      <trkpt lat="47.71225" lon="5.09152">
        <ele>498.5</ele>
        <time>2021-08-27T13:31:35Z</time>
      </trkpt>
      <trkpt lat="47.71225" lon="5.09152">
        <ele>498.5</ele>
        <time>2021-08-27T13:31:36Z</time>
      </trkpt>
      <trkpt lat="47.71225" lon="5.09152">
        <ele>477.01</ele>
        <time>2021-08-27T13:31:40Z</time>
      </trkpt>
      <trkpt lat="47.71225" lon="5.09152">
        <ele>477.01</ele>
        <time>2021-08-27T13:31:41Z</time>
      </trkpt>
      <trkpt lat="47.71227" lon="5.0915">
        <ele>476.85</ele>
        <time>2021-08-27T13:32:14Z</time>
      </trkpt>
      <trkpt lat="47.71228" lon="5.0915">
        <ele>477.47</ele>
        <time>2021-08-27T13:32:25Z</time>
      </trkpt>
      <trkpt lat="47.71232" lon="5.09145">
        <ele>476.46</ele>
        <time>2021-08-27T13:32:30Z</time>
      </trkpt>
      <trkpt lat="47.7124" lon="5.0913">
        <ele>475.83</ele>
        <time>2021-08-27T13:32:43Z</time>
      </trkpt>
      <trkpt lat="47.71247" lon="5.09116">
        <ele>474.96</ele>
        <time>2021-08-27T13:32:54Z</time>
      </trkpt>
      <trkpt lat="47.71253" lon="5.09107">
        <ele>474.1</ele>
        <time>2021-08-27T13:33:02Z</time>
      </trkpt>
      <trkpt lat="47.71262" lon="5.0909">
        <ele>473.07</ele>
        <time>2021-08-27T13:33:16Z</time>
      </trkpt>
      <trkpt lat="47.71268" lon="5.09075">
        <ele>471.55</ele>
        <time>2021-08-27T13:33:27Z</time>
      </trkpt>
      <trkpt lat="47.71275" lon="5.09065">
        <ele>470.53</ele>
        <time>2021-08-27T13:33:34Z</time>
      </trkpt>
      <trkpt lat="47.71277" lon="5.09056">
        <ele>469.78</ele>
        <time>2021-08-27T13:33:47Z</time>
      </trkpt>
      <trkpt lat="47.71272" lon="5.09052">
        <ele>469.81</ele>
        <time>2021-08-27T13:33:51Z</time>
      </trkpt>
      <trkpt lat="47.71261" lon="5.09038">
        <ele>469.08</ele>
        <time>2021-08-27T13:34:05Z</time>
      </trkpt>
      <trkpt lat="47.71254" lon="5.09026">
        <ele>468.83</ele>
        <time>2021-08-27T13:34:14Z</time>
      </trkpt>
      <trkpt lat="47.7125" lon="5.09019">
        <ele>468.7</ele>
        <time>2021-08-27T13:34:20Z</time>
      </trkpt>
      <trkpt lat="47.71245" lon="5.0901">
        <ele>468.42</ele>
        <time>2021-08-27T13:34:27Z</time>
      </trkpt>
      <trkpt lat="47.71239" lon="5.08993">
        <ele>468.3</ele>
        <time>2021-08-27T13:34:42Z</time>
      </trkpt>
      <trkpt lat="47.71238" lon="5.08976">
        <ele>469.67</ele>
        <time>2021-08-27T13:34:57Z</time>
      </trkpt>
      <trkpt lat="47.71243" lon="5.08962">
        <ele>469.43</ele>
        <time>2021-08-27T13:35:30Z</time>
      </trkpt>
      <trkpt lat="47.71243" lon="5.08961">
        <ele>469.61</ele>
        <time>2021-08-27T13:35:31Z</time>
      </trkpt>
      <trkpt lat="47.71246" lon="5.08947">
        <ele>468.82</ele>
        <time>2021-08-27T13:35:44Z</time>
      </trkpt>
      <trkpt lat="47.71256" lon="5.08927">
        <ele>467.24</ele>
        <time>2021-08-27T13:36:00Z</time>
      </trkpt>
      <trkpt lat="47.71272" lon="5.08909">
        <ele>466</ele>
        <time>2021-08-27T13:36:15Z</time>
      </trkpt>
      <trkpt lat="47.71286" lon="5.0889">
        <ele>464.08</ele>
        <time>2021-08-27T13:36:30Z</time>
      </trkpt>
      <trkpt lat="47.71292" lon="5.08885">
        <ele>463.64</ele>
        <time>2021-08-27T13:36:36Z</time>
      </trkpt>
      <trkpt lat="47.71298" lon="5.08884">
        <ele>462.98</ele>
        <time>2021-08-27T13:36:55Z</time>
      </trkpt>
      <trkpt lat="47.713" lon="5.08878">
        <ele>462.83</ele>
        <time>2021-08-27T13:37:00Z</time>
      </trkpt>
      <trkpt lat="47.71306" lon="5.08858">
        <ele>461.15</ele>
        <time>2021-08-27T13:37:16Z</time>
      </trkpt>
      <trkpt lat="47.71314" lon="5.08846">
        <ele>460.64</ele>
        <time>2021-08-27T13:37:27Z</time>
      </trkpt>
      <trkpt lat="47.71325" lon="5.08826">
        <ele>459.63</ele>
        <time>2021-08-27T13:37:41Z</time>
      </trkpt>
      <trkpt lat="47.71328" lon="5.08824">
        <ele>459.52</ele>
        <time>2021-08-27T13:38:32Z</time>
      </trkpt>
      <trkpt lat="47.71332" lon="5.08815">
        <ele>459.09</ele>
        <time>2021-08-27T13:38:42Z</time>
      </trkpt>
      <trkpt lat="47.71337" lon="5.08806">
        <ele>458.85</ele>
        <time>2021-08-27T13:38:47Z</time>
      </trkpt>
      <trkpt lat="47.71343" lon="5.08799">
        <ele>458.17</ele>
        <time>2021-08-27T13:38:59Z</time>
      </trkpt>
      <trkpt lat="47.7134" lon="5.08781">
        <ele>459</ele>
        <time>2021-08-27T13:39:12Z</time>
      </trkpt>
      <trkpt lat="47.71334" lon="5.08754">
        <ele>460.04</ele>
        <time>2021-08-27T13:39:28Z</time>
      </trkpt>
      <trkpt lat="47.71331" lon="5.08746">
        <ele>460.6</ele>
        <time>2021-08-27T13:39:34Z</time>
      </trkpt>
      <trkpt lat="47.71328" lon="5.08732">
        <ele>460.92</ele>
        <time>2021-08-27T13:39:41Z</time>
      </trkpt>
      <trkpt lat="47.71332" lon="5.08704">
        <ele>460.53</ele>
        <time>2021-08-27T13:39:56Z</time>
      </trkpt>
      <trkpt lat="47.71336" lon="5.08692">
        <ele>458.44</ele>
        <time>2021-08-27T13:40:10Z</time>
      </trkpt>
      <trkpt lat="47.71337" lon="5.08672">
        <ele>457.05</ele>
        <time>2021-08-27T13:40:24Z</time>
      </trkpt>
      <trkpt lat="47.71336" lon="5.08659">
        <ele>456.38</ele>
        <time>2021-08-27T13:40:33Z</time>
      </trkpt>
      <trkpt lat="47.71334" lon="5.08637">
        <ele>454.8</ele>
        <time>2021-08-27T13:40:48Z</time>
      </trkpt>
      <trkpt lat="47.71337" lon="5.08618">
        <ele>452.71</ele>
        <time>2021-08-27T13:41:03Z</time>
      </trkpt>
      <trkpt lat="47.71339" lon="5.086">
        <ele>450.9</ele>
        <time>2021-08-27T13:41:15Z</time>
      </trkpt>
      <trkpt lat="47.71349" lon="5.08584">
        <ele>448.88</ele>
        <time>2021-08-27T13:41:28Z</time>
      </trkpt>
      <trkpt lat="47.71352" lon="5.08568">
        <ele>446.56</ele>
        <time>2021-08-27T13:41:42Z</time>
      </trkpt>
      <trkpt lat="47.71359" lon="5.08553">
        <ele>444.05</ele>
        <time>2021-08-27T13:41:55Z</time>
      </trkpt>
      <trkpt lat="47.71361" lon="5.08539">
        <ele>441.8</ele>
        <time>2021-08-27T13:42:09Z</time>
      </trkpt>
      <trkpt lat="47.71372" lon="5.08517">
        <ele>439.46</ele>
        <time>2021-08-27T13:42:23Z</time>
      </trkpt>
      <trkpt lat="47.71379" lon="5.08503">
        <ele>437.45</ele>
        <time>2021-08-27T13:42:36Z</time>
      </trkpt>
      <trkpt lat="47.71384" lon="5.08495">
        <ele>434.75</ele>
        <time>2021-08-27T13:42:50Z</time>
      </trkpt>
      <trkpt lat="47.71389" lon="5.08475">
        <ele>432.23</ele>
        <time>2021-08-27T13:43:04Z</time>
      </trkpt>
      <trkpt lat="47.71399" lon="5.08453">
        <ele>429.04</ele>
        <time>2021-08-27T13:43:21Z</time>
      </trkpt>
      <trkpt lat="47.71406" lon="5.08432">
        <ele>426.42</ele>
        <time>2021-08-27T13:43:37Z</time>
      </trkpt>
      <trkpt lat="47.71412" lon="5.0842">
        <ele>424.2</ele>
        <time>2021-08-27T13:43:49Z</time>
      </trkpt>
      <trkpt lat="47.71415" lon="5.0841">
        <ele>421.57</ele>
        <time>2021-08-27T13:44:04Z</time>
      </trkpt>
      <trkpt lat="47.7142" lon="5.08394">
        <ele>418.4</ele>
        <time>2021-08-27T13:44:20Z</time>
      </trkpt>
      <trkpt lat="47.71424" lon="5.08377">
        <ele>415.88</ele>
        <time>2021-08-27T13:44:34Z</time>
      </trkpt>
      <trkpt lat="47.71425" lon="5.08363">
        <ele>412.67</ele>
        <time>2021-08-27T13:44:48Z</time>
      </trkpt>
      <trkpt lat="47.71435" lon="5.08348">
        <ele>412.64</ele>
        <time>2021-08-27T13:45:06Z</time>
      </trkpt>
      <trkpt lat="47.71434" lon="5.08343">
        <ele>411.02</ele>
        <time>2021-08-27T13:45:11Z</time>
      </trkpt>
      <trkpt lat="47.71432" lon="5.08335">
        <ele>409.96</ele>
        <time>2021-08-27T13:45:19Z</time>
      </trkpt>
      <trkpt lat="47.71426" lon="5.08317">
        <ele>407.82</ele>
        <time>2021-08-27T13:45:36Z</time>
      </trkpt>
      <trkpt lat="47.71427" lon="5.08307">
        <ele>406.63</ele>
        <time>2021-08-27T13:45:51Z</time>
      </trkpt>
      <trkpt lat="47.71409" lon="5.08306">
        <ele>407.02</ele>
        <time>2021-08-27T13:46:06Z</time>
      </trkpt>
      <trkpt lat="47.71393" lon="5.083">
        <ele>407.31</ele>
        <time>2021-08-27T13:46:21Z</time>
      </trkpt>
      <trkpt lat="47.71388" lon="5.08298">
        <ele>407.43</ele>
        <time>2021-08-27T13:46:25Z</time>
      </trkpt>
      <trkpt lat="47.71374" lon="5.08296">
        <ele>409.08</ele>
        <time>2021-08-27T13:46:41Z</time>
      </trkpt>
      <trkpt lat="47.71369" lon="5.08295">
        <ele>409.49</ele>
        <time>2021-08-27T13:46:45Z</time>
      </trkpt>
      <trkpt lat="47.71352" lon="5.08284">
        <ele>410.85</ele>
        <time>2021-08-27T13:47:00Z</time>
      </trkpt>
      <trkpt lat="47.71343" lon="5.08275">
        <ele>410.82</ele>
        <time>2021-08-27T13:47:08Z</time>
      </trkpt>
      <trkpt lat="47.71342" lon="5.08272">
        <ele>410.81</ele>
        <time>2021-08-27T13:47:10Z</time>
      </trkpt>
      <trkpt lat="47.71328" lon="5.08258">
        <ele>411.09</ele>
        <time>2021-08-27T13:47:25Z</time>
      </trkpt>
      <trkpt lat="47.71318" lon="5.0824">
        <ele>410.19</ele>
        <time>2021-08-27T13:47:40Z</time>
      </trkpt>
      <trkpt lat="47.71305" lon="5.08227">
        <ele>410.09</ele>
        <time>2021-08-27T13:47:54Z</time>
      </trkpt>
      <trkpt lat="47.71304" lon="5.0822">
        <ele>409.89</ele>
        <time>2021-08-27T13:48:06Z</time>
      </trkpt>
      <trkpt lat="47.71302" lon="5.08218">
        <ele>409.76</ele>
        <time>2021-08-27T13:48:20Z</time>
      </trkpt>
      <trkpt lat="47.713" lon="5.08217">
        <ele>409.71</ele>
        <time>2021-08-27T13:48:22Z</time>
      </trkpt>
      <trkpt lat="47.71293" lon="5.0822">
        <ele>411.81</ele>
        <time>2021-08-27T13:48:36Z</time>
      </trkpt>
      <trkpt lat="47.7129" lon="5.08225">
        <ele>413.74</ele>
        <time>2021-08-27T13:48:48Z</time>
      </trkpt>
      <trkpt lat="47.71282" lon="5.08228">
        <ele>415.5</ele>
        <time>2021-08-27T13:49:08Z</time>
      </trkpt>
      <trkpt lat="47.71272" lon="5.08234">
        <ele>418.48</ele>
        <time>2021-08-27T13:49:25Z</time>
      </trkpt>
      <trkpt lat="47.71263" lon="5.08232">
        <ele>419.98</ele>
        <time>2021-08-27T13:49:41Z</time>
      </trkpt>
      <trkpt lat="47.71256" lon="5.08229">
        <ele>421.35</ele>
        <time>2021-08-27T13:49:52Z</time>
      </trkpt>
    </trkseg>
  </trk>
</gpx>